sensor_id;sensor_type;location;lat;lon;timestamp;P1;durP1;ratioP1;P2;durP2;ratioP2
63218;SDS011;49320;52.512;13.448;2023-02-01T00:00:54;14.77;;;3.83;;
63218;SDS011;49320;52.512;13.448;2023-02-01T00:03:21;13.85;;;4.15;;
63218;SDS011;49320;52.512;13.448;2023-02-01T00:05:55;13.98;;;4.72;;
63218;SDS011;49320;52.512;13.448;2023-02-01T00:08:24;13.75;;;3.95;;
63218;SDS011;49320;52.512;13.448;2023-02-01T00:10:57;13.85;;;4.03;;
63218;SDS011;49320;52.512;13.448;2023-02-01T00:13:27;13.27;;;3.60;;
63218;SDS011;49320;52.512;13.448;2023-02-01T00:16:03;12.55;;;4.05;;
63218;SDS011;49320;52.512;13.448;2023-02-01T00:18:43;12.55;;;4.07;;
63218;SDS011;49320;52.512;13.448;2023-02-01T00:21:12;13.63;;;3.95;;
63218;SDS011;49320;52.512;13.448;2023-02-01T00:23:41;13.18;;;3.40;;
63218;SDS011;49320;52.512;13.448;2023-02-01T00:26:15;11.13;;;3.30;;
63218;SDS011;49320;52.512;13.448;2023-02-01T00:28:45;10.20;;;3.50;;
63218;SDS011;49320;52.512;13.448;2023-02-01T00:31:12;10.25;;;2.78;;
63218;SDS011;49320;52.512;13.448;2023-02-01T00:33:39;8.25;;;3.05;;
63218;SDS011;49320;52.512;13.448;2023-02-01T00:36:07;13.85;;;3.22;;
63218;SDS011;49320;52.512;13.448;2023-02-01T00:38:36;10.25;;;3.10;;
63218;SDS011;49320;52.512;13.448;2023-02-01T00:41:05;9.30;;;3.00;;
63218;SDS011;49320;52.512;13.448;2023-02-01T00:43:41;12.82;;;3.75;;
63218;SDS011;49320;52.512;13.448;2023-02-01T00:46:08;13.48;;;3.63;;
63218;SDS011;49320;52.512;13.448;2023-02-01T00:48:36;11.10;;;3.30;;
63218;SDS011;49320;52.512;13.448;2023-02-01T00:51:08;11.85;;;3.85;;
63218;SDS011;49320;52.512;13.448;2023-02-01T00:53:38;14.68;;;3.22;;
63218;SDS011;49320;52.512;13.448;2023-02-01T00:56:06;10.02;;;2.97;;
63218;SDS011;49320;52.512;13.448;2023-02-01T00:58:34;9.32;;;2.88;;
63218;SDS011;49320;52.512;13.448;2023-02-01T01:01:12;12.27;;;3.63;;
63218;SDS011;49320;52.512;13.448;2023-02-01T01:03:52;7.65;;;2.67;;
63218;SDS011;49320;52.512;13.448;2023-02-01T01:06:26;9.55;;;2.70;;
63218;SDS011;49320;52.512;13.448;2023-02-01T01:09:00;10.32;;;2.67;;
63218;SDS011;49320;52.512;13.448;2023-02-01T01:11:32;7.25;;;2.53;;
63218;SDS011;49320;52.512;13.448;2023-02-01T01:14:02;9.82;;;2.85;;
63218;SDS011;49320;52.512;13.448;2023-02-01T01:16:31;7.38;;;2.70;;
63218;SDS011;49320;52.512;13.448;2023-02-01T01:18:59;6.43;;;2.25;;
63218;SDS011;49320;52.512;13.448;2023-02-01T01:21:26;11.35;;;2.58;;
63218;SDS011;49320;52.512;13.448;2023-02-01T01:23:54;10.88;;;3.38;;
63218;SDS011;49320;52.512;13.448;2023-02-01T01:26:22;10.25;;;2.72;;
63218;SDS011;49320;52.512;13.448;2023-02-01T01:28:54;7.45;;;2.67;;
63218;SDS011;49320;52.512;13.448;2023-02-01T01:31:23;11.07;;;2.70;;
63218;SDS011;49320;52.512;13.448;2023-02-01T01:33:52;11.32;;;2.40;;
63218;SDS011;49320;52.512;13.448;2023-02-01T01:36:22;7.93;;;2.63;;
63218;SDS011;49320;52.512;13.448;2023-02-01T01:38:49;7.03;;;2.33;;
63218;SDS011;49320;52.512;13.448;2023-02-01T01:41:20;8.73;;;2.38;;
63218;SDS011;49320;52.512;13.448;2023-02-01T01:43:53;13.15;;;3.08;;
63218;SDS011;49320;52.512;13.448;2023-02-01T01:46:26;8.13;;;2.25;;
63218;SDS011;49320;52.512;13.448;2023-02-01T01:49:06;6.10;;;2.22;;
63218;SDS011;49320;52.512;13.448;2023-02-01T01:51:38;9.55;;;2.53;;
63218;SDS011;49320;52.512;13.448;2023-02-01T01:54:19;10.90;;;2.42;;
63218;SDS011;49320;52.512;13.448;2023-02-01T01:57:01;11.60;;;3.95;;
63218;SDS011;49320;52.512;13.448;2023-02-01T01:59:35;10.70;;;3.22;;
63218;SDS011;49320;52.512;13.448;2023-02-01T02:02:06;12.00;;;2.95;;
63218;SDS011;49320;52.512;13.448;2023-02-01T02:04:33;9.63;;;3.30;;
63218;SDS011;49320;52.512;13.448;2023-02-01T02:07:09;8.48;;;2.70;;
63218;SDS011;49320;52.512;13.448;2023-02-01T02:09:47;13.52;;;3.13;;
63218;SDS011;49320;52.512;13.448;2023-02-01T02:12:26;13.43;;;2.67;;
63218;SDS011;49320;52.512;13.448;2023-02-01T02:14:53;10.30;;;3.13;;
63218;SDS011;49320;52.512;13.448;2023-02-01T02:20:27;12.02;;;3.47;;
63218;SDS011;49320;52.512;13.448;2023-02-01T02:26:50;10.50;;;2.97;;
63218;SDS011;49320;52.512;13.448;2023-02-01T02:29:42;9.43;;;3.40;;
63218;SDS011;49320;52.512;13.448;2023-02-01T02:32:36;10.40;;;3.08;;
63218;SDS011;49320;52.512;13.448;2023-02-01T02:35:35;12.23;;;3.15;;
63218;SDS011;49320;52.512;13.448;2023-02-01T02:41:08;11.23;;;3.33;;
63218;SDS011;49320;52.512;13.448;2023-02-01T02:44:09;10.60;;;2.88;;
63218;SDS011;49320;52.512;13.448;2023-02-01T02:47:08;9.40;;;2.92;;
63218;SDS011;49320;52.512;13.448;2023-02-01T02:49:54;9.20;;;3.30;;
63218;SDS011;49320;52.512;13.448;2023-02-01T02:52:52;13.68;;;3.55;;
63218;SDS011;49320;52.512;13.448;2023-02-01T02:55:49;13.70;;;3.22;;
63218;SDS011;49320;52.512;13.448;2023-02-01T02:58:18;10.90;;;3.45;;
63218;SDS011;49320;52.512;13.448;2023-02-01T03:01:06;9.68;;;3.42;;
63218;SDS011;49320;52.512;13.448;2023-02-01T03:03:51;11.25;;;3.17;;
63218;SDS011;49320;52.512;13.448;2023-02-01T03:06:34;9.07;;;2.92;;
63218;SDS011;49320;52.512;13.448;2023-02-01T03:09:04;9.88;;;2.55;;
63218;SDS011;49320;52.512;13.448;2023-02-01T03:11:42;9.93;;;3.25;;
63218;SDS011;49320;52.512;13.448;2023-02-01T03:14:34;12.30;;;2.85;;
63218;SDS011;49320;52.512;13.448;2023-02-01T03:17:06;12.95;;;3.10;;
63218;SDS011;49320;52.512;13.448;2023-02-01T03:19:41;11.48;;;2.80;;
63218;SDS011;49320;52.512;13.448;2023-02-01T03:22:23;13.32;;;3.03;;
63218;SDS011;49320;52.512;13.448;2023-02-01T03:25:10;10.88;;;2.78;;
63218;SDS011;49320;52.512;13.448;2023-02-01T03:27:48;11.38;;;3.28;;
63218;SDS011;49320;52.512;13.448;2023-02-01T03:30:24;10.32;;;2.53;;
63218;SDS011;49320;52.512;13.448;2023-02-01T03:32:56;11.77;;;3.30;;
63218;SDS011;49320;52.512;13.448;2023-02-01T03:35:31;9.60;;;2.92;;
63218;SDS011;49320;52.512;13.448;2023-02-01T03:40:52;12.52;;;3.78;;
63218;SDS011;49320;52.512;13.448;2023-02-01T03:43:55;12.18;;;3.88;;
63218;SDS011;49320;52.512;13.448;2023-02-01T03:46:35;10.60;;;3.17;;
63218;SDS011;49320;52.512;13.448;2023-02-01T03:49:31;10.68;;;2.92;;
63218;SDS011;49320;52.512;13.448;2023-02-01T03:52:04;11.27;;;2.70;;
63218;SDS011;49320;52.512;13.448;2023-02-01T03:54:37;7.13;;;2.33;;
63218;SDS011;49320;52.512;13.448;2023-02-01T03:57:06;14.20;;;3.38;;
63218;SDS011;49320;52.512;13.448;2023-02-01T03:59:43;9.30;;;2.80;;
63218;SDS011;49320;52.512;13.448;2023-02-01T04:02:11;15.85;;;3.03;;
63218;SDS011;49320;52.512;13.448;2023-02-01T04:04:38;9.77;;;2.75;;
63218;SDS011;49320;52.512;13.448;2023-02-01T04:07:05;10.65;;;3.15;;
63218;SDS011;49320;52.512;13.448;2023-02-01T04:09:32;16.13;;;3.05;;
63218;SDS011;49320;52.512;13.448;2023-02-01T04:11:59;9.15;;;3.33;;
63218;SDS011;49320;52.512;13.448;2023-02-01T04:14:25;7.40;;;2.65;;
63218;SDS011;49320;52.512;13.448;2023-02-01T04:16:53;9.95;;;2.75;;
63218;SDS011;49320;52.512;13.448;2023-02-01T04:19:20;10.40;;;2.60;;
63218;SDS011;49320;52.512;13.448;2023-02-01T04:21:46;10.18;;;3.35;;
63218;SDS011;49320;52.512;13.448;2023-02-01T04:24:13;9.68;;;2.28;;
63218;SDS011;49320;52.512;13.448;2023-02-01T04:26:40;8.82;;;2.70;;
63218;SDS011;49320;52.512;13.448;2023-02-01T04:29:08;11.60;;;4.25;;
63218;SDS011;49320;52.512;13.448;2023-02-01T04:31:36;17.75;;;3.92;;
63218;SDS011;49320;52.512;13.448;2023-02-01T04:34:03;11.25;;;3.40;;
63218;SDS011;49320;52.512;13.448;2023-02-01T04:36:29;10.00;;;2.67;;
63218;SDS011;49320;52.512;13.448;2023-02-01T04:38:56;13.43;;;3.22;;
63218;SDS011;49320;52.512;13.448;2023-02-01T04:41:23;17.65;;;3.92;;
63218;SDS011;49320;52.512;13.448;2023-02-01T04:43:50;11.27;;;3.10;;
63218;SDS011;49320;52.512;13.448;2023-02-01T04:46:18;10.40;;;3.15;;
63218;SDS011;49320;52.512;13.448;2023-02-01T04:48:45;11.05;;;3.42;;
63218;SDS011;49320;52.512;13.448;2023-02-01T04:51:12;10.40;;;2.92;;
63218;SDS011;49320;52.512;13.448;2023-02-01T04:53:39;12.57;;;3.08;;
63218;SDS011;49320;52.512;13.448;2023-02-01T04:56:06;9.13;;;2.72;;
63218;SDS011;49320;52.512;13.448;2023-02-01T04:58:33;8.63;;;2.65;;
63218;SDS011;49320;52.512;13.448;2023-02-01T05:01:01;13.40;;;3.20;;
63218;SDS011;49320;52.512;13.448;2023-02-01T05:03:34;8.52;;;3.05;;
63218;SDS011;49320;52.512;13.448;2023-02-01T05:06:01;8.30;;;2.85;;
63218;SDS011;49320;52.512;13.448;2023-02-01T05:08:30;10.40;;;2.78;;
63218;SDS011;49320;52.512;13.448;2023-02-01T05:10:58;12.93;;;3.08;;
63218;SDS011;49320;52.512;13.448;2023-02-01T05:13:28;12.50;;;3.08;;
63218;SDS011;49320;52.512;13.448;2023-02-01T05:16:14;12.40;;;3.42;;
63218;SDS011;49320;52.512;13.448;2023-02-01T05:18:42;10.02;;;3.38;;
63218;SDS011;49320;52.512;13.448;2023-02-01T05:21:09;10.48;;;3.45;;
63218;SDS011;49320;52.512;13.448;2023-02-01T05:23:35;10.73;;;3.10;;
63218;SDS011;49320;52.512;13.448;2023-02-01T05:26:22;7.63;;;2.83;;
63218;SDS011;49320;52.512;13.448;2023-02-01T05:28:50;10.07;;;3.42;;
63218;SDS011;49320;52.512;13.448;2023-02-01T05:31:17;15.73;;;3.65;;
63218;SDS011;49320;52.512;13.448;2023-02-01T05:33:44;10.88;;;3.60;;
63218;SDS011;49320;52.512;13.448;2023-02-01T05:36:11;10.20;;;3.08;;
63218;SDS011;49320;52.512;13.448;2023-02-01T05:38:38;8.05;;;3.10;;
63218;SDS011;49320;52.512;13.448;2023-02-01T05:41:05;10.50;;;2.75;;
63218;SDS011;49320;52.512;13.448;2023-02-01T05:43:32;9.27;;;2.85;;
63218;SDS011;49320;52.512;13.448;2023-02-01T05:45:59;13.55;;;3.40;;
63218;SDS011;49320;52.512;13.448;2023-02-01T05:48:26;10.90;;;3.00;;
63218;SDS011;49320;52.512;13.448;2023-02-01T05:50:53;9.25;;;2.80;;
63218;SDS011;49320;52.512;13.448;2023-02-01T05:53:20;11.13;;;2.83;;
63218;SDS011;49320;52.512;13.448;2023-02-01T05:55:47;11.27;;;3.13;;
63218;SDS011;49320;52.512;13.448;2023-02-01T05:58:14;9.13;;;2.78;;
63218;SDS011;49320;52.512;13.448;2023-02-01T06:00:41;8.27;;;2.85;;
63218;SDS011;49320;52.512;13.448;2023-02-01T06:03:08;11.18;;;3.58;;
63218;SDS011;49320;52.512;13.448;2023-02-01T06:05:35;12.88;;;3.92;;
63218;SDS011;49320;52.512;13.448;2023-02-01T06:08:03;9.48;;;3.17;;
63218;SDS011;49320;52.512;13.448;2023-02-01T06:10:29;15.20;;;3.30;;
63218;SDS011;49320;52.512;13.448;2023-02-01T06:12:56;10.98;;;3.10;;
63218;SDS011;49320;52.512;13.448;2023-02-01T06:15:23;11.07;;;4.05;;
63218;SDS011;49320;52.512;13.448;2023-02-01T06:17:50;9.95;;;2.78;;
63218;SDS011;49320;52.512;13.448;2023-02-01T06:20:17;14.93;;;3.97;;
63218;SDS011;49320;52.512;13.448;2023-02-01T06:22:44;10.15;;;3.15;;
63218;SDS011;49320;52.512;13.448;2023-02-01T06:25:10;10.07;;;3.13;;
63218;SDS011;49320;52.512;13.448;2023-02-01T06:27:37;13.70;;;3.60;;
63218;SDS011;49320;52.512;13.448;2023-02-01T06:30:05;9.05;;;3.15;;
63218;SDS011;49320;52.512;13.448;2023-02-01T06:32:33;10.75;;;3.33;;
63218;SDS011;49320;52.512;13.448;2023-02-01T06:34:59;11.88;;;3.25;;
63218;SDS011;49320;52.512;13.448;2023-02-01T06:37:26;12.18;;;3.60;;
63218;SDS011;49320;52.512;13.448;2023-02-01T06:39:55;9.95;;;2.85;;
63218;SDS011;49320;52.512;13.448;2023-02-01T06:42:22;9.40;;;2.97;;
63218;SDS011;49320;52.512;13.448;2023-02-01T06:44:49;10.93;;;3.45;;
63218;SDS011;49320;52.512;13.448;2023-02-01T06:47:16;10.75;;;3.35;;
63218;SDS011;49320;52.512;13.448;2023-02-01T06:49:43;11.85;;;3.05;;
63218;SDS011;49320;52.512;13.448;2023-02-01T06:52:09;7.65;;;2.55;;
63218;SDS011;49320;52.512;13.448;2023-02-01T06:54:36;9.48;;;3.25;;
63218;SDS011;49320;52.512;13.448;2023-02-01T06:57:03;8.15;;;2.90;;
63218;SDS011;49320;52.512;13.448;2023-02-01T06:59:30;7.32;;;2.80;;
63218;SDS011;49320;52.512;13.448;2023-02-01T07:01:57;9.23;;;2.97;;
63218;SDS011;49320;52.512;13.448;2023-02-01T07:04:24;11.35;;;3.03;;
63218;SDS011;49320;52.512;13.448;2023-02-01T07:06:51;9.35;;;2.80;;
63218;SDS011;49320;52.512;13.448;2023-02-01T07:09:18;13.10;;;3.38;;
63218;SDS011;49320;52.512;13.448;2023-02-01T07:11:45;11.63;;;3.55;;
63218;SDS011;49320;52.512;13.448;2023-02-01T07:14:12;9.38;;;2.63;;
63218;SDS011;49320;52.512;13.448;2023-02-01T07:16:39;9.93;;;2.90;;
63218;SDS011;49320;52.512;13.448;2023-02-01T07:19:05;9.85;;;2.97;;
63218;SDS011;49320;52.512;13.448;2023-02-01T07:21:33;7.18;;;2.70;;
63218;SDS011;49320;52.512;13.448;2023-02-01T07:24:00;8.90;;;3.00;;
63218;SDS011;49320;52.512;13.448;2023-02-01T07:26:27;8.35;;;2.58;;
63218;SDS011;49320;52.512;13.448;2023-02-01T07:28:53;11.50;;;3.13;;
63218;SDS011;49320;52.512;13.448;2023-02-01T07:31:21;10.52;;;3.65;;
63218;SDS011;49320;52.512;13.448;2023-02-01T07:33:48;8.82;;;2.53;;
63218;SDS011;49320;52.512;13.448;2023-02-01T07:36:18;9.50;;;3.00;;
63218;SDS011;49320;52.512;13.448;2023-02-01T07:38:46;9.82;;;3.45;;
63218;SDS011;49320;52.512;13.448;2023-02-01T07:41:13;7.63;;;3.30;;
63218;SDS011;49320;52.512;13.448;2023-02-01T07:43:40;9.70;;;2.92;;
63218;SDS011;49320;52.512;13.448;2023-02-01T07:46:07;8.00;;;3.13;;
63218;SDS011;49320;52.512;13.448;2023-02-01T07:48:36;9.20;;;3.15;;
63218;SDS011;49320;52.512;13.448;2023-02-01T07:51:04;10.32;;;3.47;;
63218;SDS011;49320;52.512;13.448;2023-02-01T07:53:35;9.73;;;3.22;;
63218;SDS011;49320;52.512;13.448;2023-02-01T07:56:03;10.25;;;3.00;;
63218;SDS011;49320;52.512;13.448;2023-02-01T07:58:37;8.70;;;2.90;;
63218;SDS011;49320;52.512;13.448;2023-02-01T08:01:03;11.68;;;3.55;;
63218;SDS011;49320;52.512;13.448;2023-02-01T08:03:50;9.80;;;3.47;;
63218;SDS011;49320;52.512;13.448;2023-02-01T08:08:48;8.63;;;2.78;;
63218;SDS011;49320;52.512;13.448;2023-02-01T08:11:16;8.18;;;2.85;;
63218;SDS011;49320;52.512;13.448;2023-02-01T08:13:44;7.72;;;2.75;;
63218;SDS011;49320;52.512;13.448;2023-02-01T08:16:12;6.22;;;2.55;;
63218;SDS011;49320;52.512;13.448;2023-02-01T08:18:41;8.60;;;2.28;;
63218;SDS011;49320;52.512;13.448;2023-02-01T08:21:18;7.57;;;2.75;;
63218;SDS011;49320;52.512;13.448;2023-02-01T08:24:03;5.30;;;1.83;;
63218;SDS011;49320;52.512;13.448;2023-02-01T08:26:35;5.97;;;1.98;;
63218;SDS011;49320;52.512;13.448;2023-02-01T08:29:03;7.93;;;2.97;;
63218;SDS011;49320;52.512;13.448;2023-02-01T08:31:32;6.97;;;2.83;;
63218;SDS011;49320;52.512;13.448;2023-02-01T08:34:00;6.72;;;2.30;;
63218;SDS011;49320;52.512;13.448;2023-02-01T08:36:30;5.70;;;2.22;;
63218;SDS011;49320;52.512;13.448;2023-02-01T08:38:58;5.63;;;2.13;;
63218;SDS011;49320;52.512;13.448;2023-02-01T08:41:26;3.83;;;1.77;;
63218;SDS011;49320;52.512;13.448;2023-02-01T08:43:56;5.07;;;1.95;;
63218;SDS011;49320;52.512;13.448;2023-02-01T08:46:23;3.35;;;1.83;;
63218;SDS011;49320;52.512;13.448;2023-02-01T08:48:50;5.15;;;2.40;;
63218;SDS011;49320;52.512;13.448;2023-02-01T08:51:18;5.72;;;2.47;;
63218;SDS011;49320;52.512;13.448;2023-02-01T08:53:48;6.15;;;2.13;;
63218;SDS011;49320;52.512;13.448;2023-02-01T08:56:16;5.85;;;2.03;;
63218;SDS011;49320;52.512;13.448;2023-02-01T08:58:44;4.43;;;2.00;;
63218;SDS011;49320;52.512;13.448;2023-02-01T09:01:13;5.43;;;2.55;;
63218;SDS011;49320;52.512;13.448;2023-02-01T09:03:42;5.72;;;2.30;;
63218;SDS011;49320;52.512;13.448;2023-02-01T09:06:10;3.95;;;2.47;;
63218;SDS011;49320;52.512;13.448;2023-02-01T09:08:39;5.22;;;2.33;;
63218;SDS011;49320;52.512;13.448;2023-02-01T09:11:08;6.07;;;2.20;;
63218;SDS011;49320;52.512;13.448;2023-02-01T09:13:40;5.65;;;1.92;;
63218;SDS011;49320;52.512;13.448;2023-02-01T09:16:06;4.15;;;2.10;;
63218;SDS011;49320;52.512;13.448;2023-02-01T09:18:34;4.47;;;1.48;;
63218;SDS011;49320;52.512;13.448;2023-02-01T09:21:04;4.50;;;1.90;;
63218;SDS011;49320;52.512;13.448;2023-02-01T09:23:33;4.18;;;2.08;;
63218;SDS011;49320;52.512;13.448;2023-02-01T09:26:01;3.95;;;1.73;;
63218;SDS011;49320;52.512;13.448;2023-02-01T09:28:30;2.40;;;1.58;;
63218;SDS011;49320;52.512;13.448;2023-02-01T09:30:58;2.60;;;1.30;;
63218;SDS011;49320;52.512;13.448;2023-02-01T09:33:27;2.80;;;1.33;;
63218;SDS011;49320;52.512;13.448;2023-02-01T09:35:58;3.75;;;1.50;;
63218;SDS011;49320;52.512;13.448;2023-02-01T09:38:28;2.65;;;1.40;;
63218;SDS011;49320;52.512;13.448;2023-02-01T09:40:59;2.72;;;1.33;;
63218;SDS011;49320;52.512;13.448;2023-02-01T09:43:48;3.00;;;1.15;;
63218;SDS011;49320;52.512;13.448;2023-02-01T09:46:44;6.45;;;1.70;;
63218;SDS011;49320;52.512;13.448;2023-02-01T09:49:13;3.30;;;1.40;;
63218;SDS011;49320;52.512;13.448;2023-02-01T09:51:48;2.72;;;1.17;;
63218;SDS011;49320;52.512;13.448;2023-02-01T09:54:19;2.90;;;1.38;;
63218;SDS011;49320;52.512;13.448;2023-02-01T09:56:59;3.72;;;1.40;;
63218;SDS011;49320;52.512;13.448;2023-02-01T09:59:54;3.47;;;1.35;;
63218;SDS011;49320;52.512;13.448;2023-02-01T10:02:30;1.70;;;0.90;;
63218;SDS011;49320;52.512;13.448;2023-02-01T10:05:04;3.00;;;1.30;;
63218;SDS011;49320;52.512;13.448;2023-02-01T10:07:40;3.55;;;1.35;;
63218;SDS011;49320;52.512;13.448;2023-02-01T10:10:34;3.50;;;1.38;;
63218;SDS011;49320;52.512;13.448;2023-02-01T10:16:35;3.22;;;1.23;;
63218;SDS011;49320;52.512;13.448;2023-02-01T10:19:19;3.58;;;1.17;;
63218;SDS011;49320;52.512;13.448;2023-02-01T10:22:38;4.68;;;1.48;;
63218;SDS011;49320;52.512;13.448;2023-02-01T10:25:36;2.72;;;1.13;;
63218;SDS011;49320;52.512;13.448;2023-02-01T10:28:15;4.25;;;1.45;;
63218;SDS011;49320;52.512;13.448;2023-02-01T10:30:45;3.70;;;1.75;;
63218;SDS011;49320;52.512;13.448;2023-02-01T10:35:52;2.08;;;1.05;;
63218;SDS011;49320;52.512;13.448;2023-02-01T10:38:29;3.90;;;1.38;;
63218;SDS011;49320;52.512;13.448;2023-02-01T10:41:04;2.97;;;1.10;;
63218;SDS011;49320;52.512;13.448;2023-02-01T10:43:42;4.10;;;1.40;;
63218;SDS011;49320;52.512;13.448;2023-02-01T10:46:13;3.45;;;1.52;;
63218;SDS011;49320;52.512;13.448;2023-02-01T10:48:40;4.10;;;1.40;;
63218;SDS011;49320;52.512;13.448;2023-02-01T10:51:16;7.65;;;2.20;;
63218;SDS011;49320;52.512;13.448;2023-02-01T10:53:53;3.47;;;1.75;;
63218;SDS011;49320;52.512;13.448;2023-02-01T10:56:34;4.50;;;1.75;;
63218;SDS011;49320;52.512;13.448;2023-02-01T10:59:05;4.72;;;1.20;;
63218;SDS011;49320;52.512;13.448;2023-02-01T11:01:51;2.88;;;1.05;;
63218;SDS011;49320;52.512;13.448;2023-02-01T11:04:28;4.15;;;1.45;;
63218;SDS011;49320;52.512;13.448;2023-02-01T11:07:06;5.35;;;1.63;;
63218;SDS011;49320;52.512;13.448;2023-02-01T11:09:47;2.60;;;1.52;;
63218;SDS011;49320;52.512;13.448;2023-02-01T11:12:28;3.40;;;1.65;;
63218;SDS011;49320;52.512;13.448;2023-02-01T11:15:42;3.30;;;1.30;;
63218;SDS011;49320;52.512;13.448;2023-02-01T11:17:51;6.38;;;2.17;;
63218;SDS011;49320;52.512;13.448;2023-02-01T11:20:26;2.88;;;1.52;;
63218;SDS011;49320;52.512;13.448;2023-02-01T11:23:16;3.72;;;1.60;;
63218;SDS011;49320;52.512;13.448;2023-02-01T11:25:51;4.20;;;1.60;;
63218;SDS011;49320;52.512;13.448;2023-02-01T11:28:25;2.65;;;1.40;;
63218;SDS011;49320;52.512;13.448;2023-02-01T11:31:00;5.38;;;1.52;;
63218;SDS011;49320;52.512;13.448;2023-02-01T11:33:33;4.88;;;1.75;;
63218;SDS011;49320;52.512;13.448;2023-02-01T11:36:07;4.43;;;1.75;;
63218;SDS011;49320;52.512;13.448;2023-02-01T11:38:40;4.53;;;1.80;;
63218;SDS011;49320;52.512;13.448;2023-02-01T11:41:26;3.40;;;1.55;;
63218;SDS011;49320;52.512;13.448;2023-02-01T11:43:58;7.20;;;1.75;;
63218;SDS011;49320;52.512;13.448;2023-02-01T11:46:31;4.70;;;1.83;;
63218;SDS011;49320;52.512;13.448;2023-02-01T11:49:20;4.15;;;1.83;;
63218;SDS011;49320;52.512;13.448;2023-02-01T11:52:10;5.70;;;1.85;;
63218;SDS011;49320;52.512;13.448;2023-02-01T12:03:37;5.25;;;2.13;;
63218;SDS011;49320;52.512;13.448;2023-02-01T12:12:48;4.38;;;1.80;;
63218;SDS011;49320;52.512;13.448;2023-02-01T12:15:51;4.65;;;1.67;;
63218;SDS011;49320;52.512;13.448;2023-02-01T12:18:38;5.00;;;1.90;;
63218;SDS011;49320;52.512;13.448;2023-02-01T12:21:35;7.35;;;2.08;;
63218;SDS011;49320;52.512;13.448;2023-02-01T12:29:59;3.95;;;1.73;;
63218;SDS011;49320;52.512;13.448;2023-02-01T12:33:03;5.70;;;1.90;;
63218;SDS011;49320;52.512;13.448;2023-02-01T12:39:02;4.15;;;1.67;;
63218;SDS011;49320;52.512;13.448;2023-02-01T12:41:50;4.57;;;1.63;;
63218;SDS011;49320;52.512;13.448;2023-02-01T12:44:38;4.65;;;1.80;;
63218;SDS011;49320;52.512;13.448;2023-02-01T12:47:30;6.13;;;1.85;;
63218;SDS011;49320;52.512;13.448;2023-02-01T12:50:28;5.55;;;1.52;;
63218;SDS011;49320;52.512;13.448;2023-02-01T12:53:45;6.68;;;2.13;;
63218;SDS011;49320;52.512;13.448;2023-02-01T12:56:32;4.20;;;1.92;;
63218;SDS011;49320;52.512;13.448;2023-02-01T12:59:31;6.45;;;1.95;;
63218;SDS011;49320;52.512;13.448;2023-02-01T13:02:24;5.35;;;2.40;;
63218;SDS011;49320;52.512;13.448;2023-02-01T13:05:14;5.97;;;1.90;;
63218;SDS011;49320;52.512;13.448;2023-02-01T13:08:11;3.95;;;1.55;;
63218;SDS011;49320;52.512;13.448;2023-02-01T13:11:05;6.20;;;1.75;;
63218;SDS011;49320;52.512;13.448;2023-02-01T13:13:47;5.15;;;1.83;;
63218;SDS011;49320;52.512;13.448;2023-02-01T13:16:59;9.98;;;2.10;;
63218;SDS011;49320;52.512;13.448;2023-02-01T13:19:57;8.32;;;1.90;;
63218;SDS011;49320;52.512;13.448;2023-02-01T13:23:07;7.68;;;2.17;;
63218;SDS011;49320;52.512;13.448;2023-02-01T13:25:50;6.30;;;2.30;;
63218;SDS011;49320;52.512;13.448;2023-02-01T13:28:23;5.18;;;2.00;;
63218;SDS011;49320;52.512;13.448;2023-02-01T13:38:36;4.93;;;2.28;;
63218;SDS011;49320;52.512;13.448;2023-02-01T13:41:15;3.90;;;1.25;;
63218;SDS011;49320;52.512;13.448;2023-02-01T13:43:58;6.65;;;1.95;;
63218;SDS011;49320;52.512;13.448;2023-02-01T13:46:38;3.40;;;1.50;;
63218;SDS011;49320;52.512;13.448;2023-02-01T13:49:20;5.28;;;2.05;;
63218;SDS011;49320;52.512;13.448;2023-02-01T13:51:53;4.65;;;2.00;;
63218;SDS011;49320;52.512;13.448;2023-02-01T13:54:36;4.22;;;1.70;;
63218;SDS011;49320;52.512;13.448;2023-02-01T13:57:06;6.53;;;1.90;;
63218;SDS011;49320;52.512;13.448;2023-02-01T14:08:08;7.10;;;2.13;;
63218;SDS011;49320;52.512;13.448;2023-02-01T14:13:24;6.47;;;1.65;;
63218;SDS011;49320;52.512;13.448;2023-02-01T14:24:01;6.85;;;2.10;;
63218;SDS011;49320;52.512;13.448;2023-02-01T14:26:54;6.93;;;2.47;;
63218;SDS011;49320;52.512;13.448;2023-02-01T14:32:04;5.18;;;1.65;;
63218;SDS011;49320;52.512;13.448;2023-02-01T14:42:19;5.28;;;1.85;;
63218;SDS011;49320;52.512;13.448;2023-02-01T14:47:49;7.20;;;2.58;;
63218;SDS011;49320;52.512;13.448;2023-02-01T14:55:40;7.88;;;2.55;;
63218;SDS011;49320;52.512;13.448;2023-02-01T15:01:49;5.97;;;2.10;;
63218;SDS011;49320;52.512;13.448;2023-02-01T15:04:24;7.00;;;1.98;;
63218;SDS011;49320;52.512;13.448;2023-02-01T15:06:56;6.65;;;1.98;;
63218;SDS011;49320;52.512;13.448;2023-02-01T15:09:37;4.72;;;2.28;;
63218;SDS011;49320;52.512;13.448;2023-02-01T15:14:41;5.53;;;2.30;;
63218;SDS011;49320;52.512;13.448;2023-02-01T15:17:22;3.97;;;1.60;;
63218;SDS011;49320;52.512;13.448;2023-02-01T15:22:55;5.10;;;1.67;;
63218;SDS011;49320;52.512;13.448;2023-02-01T15:25:32;2.97;;;1.40;;
63218;SDS011;49320;52.512;13.448;2023-02-01T15:28:04;4.57;;;1.48;;
63218;SDS011;49320;52.512;13.448;2023-02-01T15:30:39;3.65;;;1.80;;
63218;SDS011;49320;52.512;13.448;2023-02-01T15:38:19;3.50;;;1.42;;
63218;SDS011;49320;52.512;13.448;2023-02-01T15:49:01;3.38;;;0.98;;
63218;SDS011;49320;52.512;13.448;2023-02-01T15:51:30;1.30;;;0.75;;
63218;SDS011;49320;52.512;13.448;2023-02-01T15:54:03;1.17;;;0.82;;
63218;SDS011;49320;52.512;13.448;2023-02-01T15:56:37;2.13;;;0.90;;
63218;SDS011;49320;52.512;13.448;2023-02-01T15:59:15;1.52;;;0.95;;
63218;SDS011;49320;52.512;13.448;2023-02-01T16:01:46;1.48;;;0.70;;
63218;SDS011;49320;52.512;13.448;2023-02-01T16:04:16;1.13;;;0.70;;
63218;SDS011;49320;52.512;13.448;2023-02-01T16:06:53;2.15;;;1.10;;
63218;SDS011;49320;52.512;13.448;2023-02-01T16:09:39;2.17;;;1.00;;
63218;SDS011;49320;52.512;13.448;2023-02-01T16:12:32;2.22;;;1.00;;
63218;SDS011;49320;52.512;13.448;2023-02-01T16:15:13;0.70;;;0.70;;
63218;SDS011;49320;52.512;13.448;2023-02-01T16:17:40;0.90;;;0.60;;
63218;SDS011;49320;52.512;13.448;2023-02-01T16:20:07;0.93;;;0.60;;
63218;SDS011;49320;52.512;13.448;2023-02-01T16:22:35;0.70;;;0.55;;
63218;SDS011;49320;52.512;13.448;2023-02-01T16:25:02;0.70;;;0.70;;
63218;SDS011;49320;52.512;13.448;2023-02-01T16:27:29;1.05;;;0.60;;
63218;SDS011;49320;52.512;13.448;2023-02-01T16:29:56;0.93;;;0.50;;
63218;SDS011;49320;52.512;13.448;2023-02-01T16:32:23;1.00;;;0.52;;
63218;SDS011;49320;52.512;13.448;2023-02-01T16:34:50;0.77;;;0.57;;
63218;SDS011;49320;52.512;13.448;2023-02-01T16:37:21;0.80;;;0.80;;
63218;SDS011;49320;52.512;13.448;2023-02-01T16:39:51;1.05;;;0.80;;
63218;SDS011;49320;52.512;13.448;2023-02-01T16:42:18;0.60;;;0.60;;
63218;SDS011;49320;52.512;13.448;2023-02-01T16:44:45;1.48;;;0.75;;
63218;SDS011;49320;52.512;13.448;2023-02-01T16:47:16;1.23;;;0.85;;
63218;SDS011;49320;52.512;13.448;2023-02-01T16:49:48;0.68;;;0.57;;
63218;SDS011;49320;52.512;13.448;2023-02-01T16:52:17;0.55;;;0.55;;
63218;SDS011;49320;52.512;13.448;2023-02-01T16:54:48;2.50;;;0.70;;
63218;SDS011;49320;52.512;13.448;2023-02-01T16:57:16;0.90;;;0.70;;
63218;SDS011;49320;52.512;13.448;2023-02-01T16:59:45;1.70;;;0.98;;
63218;SDS011;49320;52.512;13.448;2023-02-01T17:02:13;0.90;;;0.60;;
63218;SDS011;49320;52.512;13.448;2023-02-01T17:04:43;1.13;;;0.68;;